• Join FlightAware (Why Join?)
  • Login
  • US Flag 
11:33AM EDT


 

Airport Tracker/Info


-or-


 

Live Flight TrackerFlight Track Log ✈ DAL1214 ✈ 24-Apr-2013 ✈ KATL - KMHT

Flight Track Log - Related Links

Times and Time Zones

All times are in EDT time to prevent confusion due to time zone crossing. See the DAL1214 flight status page for this flight to view local times or setup timezone preferences in your user account.

Time Position Orientation Groundspeed Altitude Reporting Facility
EDT Latitude Longitude Course Direction KTS MPH feet Rate Location/Type
06:58PM 33.6500 -84.4833 11° North 181 208 2,900  Level Atlanta TRACON
06:59PM 33.6833 -84.5500 301° West 248 285 4,800 2,280 Climbing Atlanta TRACON
07:00PM 33.7500 -84.5833 337° Northwest 293 337 7,500 2,040 Climbing Atlanta TRACON
07:01PM 33.9837 -84.2667 North  Level FlightAware Approximate
07:02PM 34.1198 -84.2667 North  Level FlightAware Approximate
07:02PM 33.8811 -84.4717 35° Northeast 291 335 11,200  Level Atlanta Center
07:03PM 34.2559 -84.2667 North  Level FlightAware Approximate
07:03PM 33.9669 -84.3869 39° Northeast 357 411 12,400  Level Atlanta Center
07:04PM 34.3899 -84.2412 11° North  Level FlightAware Approximate
07:04PM 34.0736 -84.3522 15° North 377 434 14,500  Level Atlanta Center
07:05PM 34.1883 -84.3125 16° North 411 473 16,700 2,040 Climbing Atlanta Center
07:06PM 34.3033 -84.2778 14° North 422 486 18,600 1,800 Climbing Atlanta Center
07:07PM 34.4222 -84.2503 11° North 427 491 20,400 1,560 Climbing Atlanta Center
07:08PM 34.5308 -84.2228 12° North 434 499 21,800 1,500 Climbing Atlanta Center
07:09PM 34.6686 -84.1928 10° North 448 516 23,400 1,500 Climbing Atlanta Center
07:10PM 34.8022 -84.1628 10° North 459 528 24,800 1,500 Climbing Atlanta Center
07:11PM 34.9294 -84.1300 12° North 465 535 26,400 1,080 Climbing Atlanta Center
07:12PM 35.0589 -84.0997 11° North 470 541 27,000 300 Climbing Atlanta Center
07:13PM 35.1906 -84.0692 11° North 470 541 27,000  Level Atlanta Center
07:14PM 35.3219 -84.0336 12° North 470 541 27,000 540 Level Atlanta Center
07:15PM 35.4575 -84.0031 10° North 475 547 28,100 1,260 Climbing Atlanta Center
07:16PM 35.5911 -83.9697 11° North 480 552 29,600 1,200 Climbing Atlanta Center
07:17PM 35.7225 -83.9389 11° North 485 558 30,500 660 Climbing Atlanta Center
07:18PM 35.8581 -83.9056 11° North 485 558 31,000 240 Climbing Atlanta Center
07:19PM 35.9831 -83.8436 22° Northeast 478 550 31,000 240 Level Atlanta Center
07:21PM 36.1556 -83.7336 27° Northeast 500 575 31,700 420 Climbing Indianapolis Center
07:22PM 36.2822 -83.6533 27° Northeast 509 586 32,200 600 Climbing Indianapolis Center
07:23PM 36.4333 -83.5578 27° Northeast 510 587 33,000 360 Climbing Indianapolis Center
07:24PM 36.5489 -83.4858 27° Northeast 507 583 33,000  Level Indianapolis Center
07:25PM 36.6744 -83.3936 30° Northeast 518 596 33,000  Level Indianapolis Center
07:26PM 36.7911 -83.2825 37° Northeast 523 602 33,000  Level Indianapolis Center
07:27PM 36.9303 -83.1511 37° Northeast 531 611 33,000  Level Indianapolis Center
07:28PM 37.0506 -83.0369 37° Northeast 530 610 33,000  Level Indianapolis Center
07:29PM 37.1694 -82.9217 38° Northeast 531 611 33,000  Level Indianapolis Center
07:30PM 37.2897 -82.8086 37° Northeast 533 613 33,000  Level Indianapolis Center
07:31PM 37.4069 -82.6961 37° Northeast 529 609 33,000  Level Indianapolis Center
07:32PM 37.5258 -82.5814 37° Northeast 532 612 33,000  Level Indianapolis Center
07:33PM 37.6436 -82.4661 38° Northeast 533 613 33,000  Level Indianapolis Center
07:34PM 37.7614 -82.3522 37° Northeast 534 615 33,000  Level Indianapolis Center
07:35PM 37.8800 -82.2383 37° Northeast 535 616 33,000  Level Indianapolis Center
07:36PM 37.9944 -82.1256 38° Northeast 531 611 33,000  Level Indianapolis Center
07:37PM 38.1356 -81.9853 38° Northeast 538 619 33,000  Level Indianapolis Center
07:38PM 38.2528 -81.8694 38° Northeast 533 613 33,000  Level Indianapolis Center
07:39PM 38.3658 -81.7478 40° Northeast 534 615 33,000  Level Indianapolis Center
07:40PM 38.4667 -81.6036 48° Northeast 549 632 33,000  Level Indianapolis Center
07:41PM 38.5653 -81.4614 48° Northeast 547 629 33,000  Level Indianapolis Center
07:43PM 38.6844 -81.2919 48° Northeast 548 631 33,000  Level Indianapolis Center
07:44PM 38.7847 -81.1478 48° Northeast 548 631 33,000  Level Indianapolis Center
07:45PM 38.8856 -81.0008 49° Northeast 551 634 33,000  Level Indianapolis Center
07:46PM 38.9883 -80.8525 48° Northeast 557 641 33,000  Level Indianapolis Center
07:47PM 39.0917 -80.7047 48° Northeast 554 638 33,000  Level Indianapolis Center
07:48PM 39.1953 -80.5614 47° Northeast 552 635 33,000  Level Indianapolis Center
07:49PM 39.2997 -80.4161 47° Northeast 552 635 33,000  Level Indianapolis Center
07:50PM 39.4247 -80.2394 47° Northeast 553 636 33,000  Level Indianapolis Center
07:50PM 39.4767 -80.1742 44° Northeast 549 632 33,000  Level Cleveland Center
07:51PM 39.5844 -80.0364 45° Northeast 549 632 33,000  Level Cleveland Center
07:52PM 39.7003 -79.9086 40° Northeast 544 626 33,000  Level Cleveland Center
07:53PM 39.8164 -79.7831 40° Northeast 544 626 33,000  Level Cleveland Center
07:54PM 39.9194 -79.6572 43° Northeast 549 632 33,000  Level Cleveland Center
07:55PM 40.0161 -79.4989 51° Northeast 549 632 33,000  Level Cleveland Center
07:56PM 40.1147 -79.3397 51° Northeast 556 640 33,000  Level Cleveland Center
07:57PM 40.2067 -79.1803 53° Northeast 556 640 33,000  Level Cleveland Center
07:58PM 40.3025 -79.0206 52° Northeast 551 634 33,000  Level Cleveland Center
07:59PM 40.4003 -78.8628 51° Northeast 551 634 33,000  Level Cleveland Center
08:00PM 40.4936 -78.7019 53° Northeast 551 634 33,000  Level Cleveland Center
08:02PM 40.6669 -78.4108 52° Northeast 553 636 33,000  Level New York Center
08:03PM 40.7622 -78.2542 51° Northeast 547 629 33,000  Level New York Center
08:04PM 40.8650 -78.0786 52° Northeast 553 636 33,000  Level New York Center
08:05PM 40.9525 -77.9094 56° Northeast 548 631 33,000  Level New York Center
08:06PM 41.0294 -77.7386 59° Northeast 542 624 33,000  Level New York Center
08:07PM 41.1058 -77.5675 59° Northeast 542 624 33,000  Level New York Center
08:08PM 41.1822 -77.3958 59° Northeast 537 618 33,000  Level New York Center
08:09PM 41.2564 -77.2264 60° Northeast 531 611 33,000  Level New York Center
08:10PM 41.3322 -77.0542 60° Northeast 526 605 33,000  Level New York Center
08:11PM 41.4056 -76.8867 60° Northeast 526 605 33,000  Level New York Center
08:12PM 41.4789 -76.7161 60° Northeast 526 605 33,000  Level New York Center
08:13PM 41.5517 -76.5450 60° Northeast 526 605 33,000  Level New York Center
08:14PM 41.6175 -76.3897 60° Northeast 526 605 33,000  Level New York Center
08:15PM 41.6900 -76.2181 60° Northeast 526 605 33,000  Level New York Center
08:17PM 41.8469 -75.8431 61° Northeast 521 600 33,000  Level Boston Center
08:18PM 41.9164 -75.6739 61° Northeast 516 594 33,000  Level Boston Center
08:19PM 41.9858 -75.5069 61° Northeast 511 588 33,000  Level Boston Center
08:20PM 42.0547 -75.3397 61° Northeast 511 588 33,000  Level Boston Center
08:21PM 42.1278 -75.1753 59° Northeast 511 588 33,000 -300 Level Boston Center
08:22PM 42.2111 -74.9994 57° Northeast 503 579 32,400 -1,440 Descending Boston Center
08:23PM 42.2856 -74.8339 59° Northeast 503 579 30,200 -2,520 Descending Boston Center
08:24PM 42.3617 -74.6711 58° Northeast 508 585 27,400 -1,620 Descending Boston Center
08:25PM 42.4358 -74.5022 59° Northeast 508 585 27,000 -240 Descending Boston Center
08:26PM 42.5117 -74.3356 58° Northeast 508 585 27,000 -840 Level Boston Center
08:27PM 42.5522 -74.1564 73° East 501 577 25,400 -1,800 Descending Boston Center
08:28PM 42.5775 -73.9767 79° East 488 562 23,400 -2,220 Descending Boston Center
08:29PM 42.5961 -73.8333 80° East 483 556 21,000 -2,220 Descending Boston Center
08:30PM 42.6236 -73.6222 80° East 478 550 19,000 -1,020 Descending Boston Center
08:31PM 42.6458 -73.4647 79° East 473 544 19,000  Level Boston Center
08:32PM 42.6683 -73.2758 81° East 462 532 19,000  Level Boston Center
08:33PM 42.6967 -73.0700 79° East 463 533 19,000  Level Boston Center
08:35PM 42.7225 -72.8978 78° East 463 533 19,000 -900 Level Boston Center
08:36PM 42.7525 -72.6408 81° East 463 533 16,500 -2,220 Descending Boston Center
08:37PM 42.7775 -72.4400 80° East 463 533 13,800 -2,700 Descending Boston Center
08:38PM 42.7942 -72.2647 83° East 443 510 11,200 -1,800 Descending Boston Center
08:39PM 42.8064 -72.1175 83° East 406 467 10,200 -960 Descending Boston Center
08:40PM 42.8308 -71.9956 75° East 348 400 9,300 -1,260 Descending Boston Center
08:41PM 42.8764 -71.8961 58° Northeast 315 362 7,700 -1,920 Descending Boston Center
08:42PM 42.9300 -71.7992 53° Northeast 315 362 5,500 -1,740 Descending Boston Center
08:43PM 42.9775 -71.7022 56° Northeast 315 362 4,300 -1,500 Descending Boston Center
08:44PM 43.0225 -71.6108 56° Northeast 303 349 2,600 -960 Descending Boston Center
08:45PM 43.0386 -71.5225 76° East 242 278 2,400 -240 Descending Boston Center